Argonia, Kansas
Current Conditions -  °F | °C
As of 7:53 AM on Thursday 18 Dec 2014 (Local Time) from KICT Reporting Station
Moderate Fog Moderate Fog  
Wind Chill: 32°   Ceiling: 300
Heat Index: 32°   Visibility: 0.25mi
Dew Point: 30°   Wind: 3mph
Humidity: 92%   Direction: 40°NE
Pressure: 30.17"   Gusts: NA
Location:  37.27°N, 97.77°W
Report Text: KICT 181353Z 04003KT 1/4SM R01L/2200V3000FT FG VV003 00/M01 A3017 RMK AO2 TWR VIS 1/2 SLP226 I1001 T00001011 $
Loading
Personal Weather Stations






























Interactive Weather Map New forecast layout! Learn more

10-Day Weather Forecast

Advertisements
Track Severe Weather on mobile